Time,TemperatureF,DewpointF,PressureIn,WindDirection,WindDirectionDegrees,WindSpeedMPH,WindSpeedGustMPH,Humidity,HourlyPrecipIn,Conditions,Clouds,dailyrainin,SolarRadiationWatts/m^2,SoftwareType,DateUTC
2013-03-02 00:01:00,45.0,15.0,-100.00,SSW,199,1.0,4.0,30,0.00,,,0.00,0.000000,,2013-03-02 08:01:00,
2013-03-02 00:32:00,45.0,15.0,-100.00,SE,124,3.0,3.0,29,0.00,,,0.00,0.000000,,2013-03-02 08:32:00,
2013-03-02 00:42:00,45.0,15.0,-100.00,SE,124,3.0,3.0,29,0.00,,,0.00,0.000000,,2013-03-02 08:42:00,
2013-03-02 00:52:00,45.0,15.0,-100.00,SE,124,3.0,3.0,29,0.00,,,0.00,0.000000,,2013-03-02 08:52:00,
2013-03-02 01:01:00,45.0,15.0,-100.00,SE,124,3.0,3.0,29,0.00,,,0.00,0.000000,,2013-03-02 09:01:00,
2013-03-02 01:22:00,43.0,14.0,-100.00,East,95,3.0,5.0,31,0.00,,,0.00,0.000000,,2013-03-02 09:22:00,
2013-03-02 01:32:00,43.0,14.0,-100.00,East,95,3.0,5.0,31,0.00,,,0.00,0.000000,,2013-03-02 09:32:00,
2013-03-02 01:42:00,43.0,14.0,-100.00,East,95,3.0,5.0,31,0.00,,,0.00,0.000000,,2013-03-02 09:42:00,
2013-03-02 01:52:00,43.0,14.0,-100.00,East,95,3.0,5.0,31,0.00,,,0.00,0.000000,,2013-03-02 09:52:00,
2013-03-02 02:01:00,43.0,14.0,-100.00,East,95,3.0,5.0,31,0.00,,,0.00,0.000000,,2013-03-02 10:01:00,
2013-03-02 02:32:00,44.0,13.0,-100.00,East,94,3.0,4.0,28,0.00,,,0.00,0.000000,,2013-03-02 10:32:00,
2013-03-02 02:43:00,44.0,13.0,-100.00,East,94,3.0,4.0,28,0.00,,,0.00,0.000000,,2013-03-02 10:43:00,
2013-03-02 02:52:00,44.0,13.0,-100.00,East,94,3.0,4.0,28,0.00,,,0.00,0.000000,,2013-03-02 10:52:00,
2013-03-02 03:01:00,44.0,13.0,-100.00,East,94,3.0,4.0,28,0.00,,,0.00,0.000000,,2013-03-02 11:01:00,
2013-03-02 03:02:00,45.0,14.0,-100.00,ESE,115,2.0,3.0,28,0.00,,,0.00,0.000000,,2013-03-02 11:02:00,
2013-03-02 03:32:00,45.0,14.0,-100.00,ESE,115,2.0,3.0,28,0.00,,,0.00,0.000000,,2013-03-02 11:32:00,
2013-03-02 03:42:00,45.0,14.0,-100.00,ESE,115,2.0,3.0,28,0.00,,,0.00,0.000000,,2013-03-02 11:42:00,
2013-03-02 03:52:00,45.0,14.0,-100.00,ESE,115,2.0,3.0,28,0.00,,,0.00,0.000000,,2013-03-02 11:52:00,
2013-03-02 04:22:00,45.0,15.0,-100.00,SE,136,2.0,4.0,29,0.00,,,0.00,0.000000,,2013-03-02 12:22:00,
2013-03-02 04:33:00,45.0,15.0,-100.00,SE,136,2.0,4.0,29,0.00,,,0.00,0.000000,,2013-03-02 12:33:00,
2013-03-02 04:43:00,45.0,15.0,-100.00,SE,136,2.0,4.0,29,0.00,,,0.00,0.000000,,2013-03-02 12:43:00,
2013-03-02 04:53:00,45.0,15.0,-100.00,SE,136,2.0,4.0,29,0.00,,,0.00,0.000000,,2013-03-02 12:53:00,
2013-03-02 05:01:00,45.0,15.0,-100.00,SE,136,2.0,4.0,29,0.00,,,0.00,0.000000,,2013-03-02 13:01:00,
2013-03-02 05:22:00,44.0,11.0,-100.00,SE,124,2.0,4.0,26,0.00,,,0.00,0.000000,,2013-03-02 13:22:00,
2013-03-02 05:32:00,44.0,11.0,-100.00,SE,124,2.0,4.0,26,0.00,,,0.00,0.000000,,2013-03-02 13:32:00,
2013-03-02 05:42:00,44.0,11.0,-100.00,SE,124,2.0,4.0,26,0.00,,,0.00,0.000000,,2013-03-02 13:42:00,
2013-03-02 05:52:00,44.0,11.0,-100.00,SE,124,2.0,4.0,26,0.00,,,0.00,0.000000,,2013-03-02 13:52:00,
2013-03-02 06:01:00,44.0,11.0,-100.00,SE,124,2.0,4.0,26,0.00,,,0.00,0.000000,,2013-03-02 14:01:00,
2013-03-02 06:22:00,45.0,14.0,-100.00,SE,133,3.0,4.0,28,0.00,,,0.00,0.000000,,2013-03-02 14:22:00,
2013-03-02 06:32:00,45.0,14.0,-100.00,SE,133,3.0,4.0,28,0.00,,,0.00,0.000000,,2013-03-02 14:32:00,
2013-03-02 06:42:00,45.0,14.0,-100.00,SE,133,3.0,4.0,28,0.00,,,0.00,0.000000,,2013-03-02 14:42:00,
2013-03-02 06:52:00,45.0,14.0,-100.00,SE,133,3.0,4.0,28,0.00,,,0.00,0.000000,,2013-03-02 14:52:00,
2013-03-02 07:01:00,45.0,14.0,-100.00,SE,133,3.0,4.0,28,0.00,,,0.00,0.000000,,2013-03-02 15:01:00,
2013-03-02 07:32:00,49.0,14.0,-100.00,SSE,159,1.0,5.0,24,0.00,,,0.00,25.000000,,2013-03-02 15:32:00,
2013-03-02 07:42:00,49.0,14.0,-100.00,SSE,159,1.0,5.0,24,0.00,,,0.00,25.000000,,2013-03-02 15:42:00,
2013-03-02 07:52:00,49.0,14.0,-100.00,SSE,159,1.0,5.0,24,0.00,,,0.00,25.000000,,2013-03-02 15:52:00,
2013-03-02 08:01:00,49.0,14.0,-100.00,SSE,159,1.0,5.0,24,0.00,,,0.00,25.000000,,2013-03-02 16:01:00,
2013-03-02 08:22:00,59.0,21.0,-100.00,East,90,1.0,3.0,23,0.00,,,0.00,212.000000,,2013-03-02 16:22:00,
2013-03-02 08:42:00,59.0,21.0,-100.00,East,90,1.0,3.0,23,0.00,,,0.00,212.000000,,2013-03-02 16:42:00,
2013-03-02 08:52:00,59.0,21.0,-100.00,East,90,1.0,3.0,23,0.00,,,0.00,212.000000,,2013-03-02 16:52:00,
2013-03-02 09:01:00,59.0,21.0,-100.00,East,90,1.0,3.0,23,0.00,,,0.00,212.000000,,2013-03-02 17:01:00,
2013-03-02 09:32:00,62.0,19.0,-100.00,SW,226,3.0,5.0,19,0.00,,,0.00,487.000000,,2013-03-02 17:32:00,
2013-03-02 09:42:00,62.0,19.0,-100.00,SW,226,3.0,5.0,19,0.00,,,0.00,487.000000,,2013-03-02 17:42:00,
2013-03-02 09:52:00,62.0,19.0,-100.00,SW,226,3.0,5.0,19,0.00,,,0.00,487.000000,,2013-03-02 17:52:00,
2013-03-02 10:01:00,62.0,19.0,-100.00,SW,226,3.0,5.0,19,0.00,,,0.00,487.000000,,2013-03-02 18:01:00,
2013-03-02 10:32:00,66.0,15.0,-100.00,SE,139,6.0,10.0,14,0.00,,,0.00,711.000000,,2013-03-02 18:32:00,
2013-03-02 10:42:00,66.0,15.0,-100.00,SE,139,6.0,10.0,14,0.00,,,0.00,711.000000,,2013-03-02 18:42:00,
2013-03-02 10:52:00,66.0,15.0,-100.00,SE,139,6.0,10.0,14,0.00,,,0.00,711.000000,,2013-03-02 18:52:00,
2013-03-02 11:01:00,66.0,15.0,-100.00,SE,139,6.0,10.0,14,0.00,,,0.00,711.000000,,2013-03-02 19:01:00,
2013-03-02 11:32:00,67.0,16.0,-100.00,ESE,117,8.0,13.0,14,0.00,,,0.00,862.000000,,2013-03-02 19:32:00,
2013-03-02 11:42:00,67.0,16.0,-100.00,ESE,117,8.0,13.0,14,0.00,,,0.00,862.000000,,2013-03-02 19:42:00,
2013-03-02 11:52:00,67.0,16.0,-100.00,ESE,117,8.0,13.0,14,0.00,,,0.00,862.000000,,2013-03-02 19:52:00,
2013-03-02 12:01:00,67.0,16.0,-100.00,ESE,117,8.0,13.0,14,0.00,,,0.00,862.000000,,2013-03-02 20:01:00,
2013-03-02 12:02:00,65.0,19.0,-100.00,SSE,151,9.0,16.0,17,0.00,,,0.00,937.000000,,2013-03-02 20:02:00,
2013-03-02 12:22:00,65.0,19.0,-100.00,SSE,151,9.0,16.0,17,0.00,,,0.00,937.000000,,2013-03-02 20:22:00,
2013-03-02 12:32:00,65.0,19.0,-100.00,SSE,151,9.0,16.0,17,0.00,,,0.00,937.000000,,2013-03-02 20:32:00,
2013-03-02 12:42:00,65.0,19.0,-100.00,SSE,151,9.0,16.0,17,0.00,,,0.00,937.000000,,2013-03-02 20:42:00,
2013-03-02 12:52:00,65.0,19.0,-100.00,SSE,151,9.0,16.0,17,0.00,,,0.00,937.000000,,2013-03-02 20:52:00,
2013-03-02 13:32:00,66.0,19.0,-100.00,SE,144,10.0,18.0,16,0.00,,,0.00,987.000000,,2013-03-02 21:32:00,
2013-03-02 13:42:00,66.0,19.0,-100.00,SE,144,10.0,18.0,16,0.00,,,0.00,987.000000,,2013-03-02 21:42:00,
2013-03-02 13:52:00,66.0,19.0,-100.00,SE,144,10.0,18.0,16,0.00,,,0.00,987.000000,,2013-03-02 21:52:00,
2013-03-02 14:01:00,66.0,19.0,-100.00,SE,144,10.0,18.0,16,0.00,,,0.00,987.000000,,2013-03-02 22:01:00,
2013-03-02 14:32:00,65.0,18.0,-100.00,SE,142,11.0,19.0,16,0.00,,,0.00,886.000000,,2013-03-02 22:32:00,
2013-03-02 14:42:00,65.0,18.0,-100.00,SE,142,11.0,19.0,16,0.00,,,0.00,886.000000,,2013-03-02 22:42:00,
2013-03-02 14:52:00,65.0,18.0,-100.00,SE,142,11.0,19.0,16,0.00,,,0.00,886.000000,,2013-03-02 22:52:00,
2013-03-02 15:01:00,65.0,18.0,-100.00,SE,142,11.0,19.0,16,0.00,,,0.00,886.000000,,2013-03-02 23:01:00,
2013-03-02 15:02:00,66.0,17.0,-100.00,SSE,164,9.0,17.0,15,0.00,,,0.00,666.000000,,2013-03-02 23:02:00,
2013-03-02 15:32:00,66.0,17.0,-100.00,SSE,164,9.0,17.0,15,0.00,,,0.00,666.000000,,2013-03-02 23:32:00,
2013-03-02 15:42:00,66.0,17.0,-100.00,SSE,164,9.0,17.0,15,0.00,,,0.00,666.000000,,2013-03-02 23:42:00,
2013-03-02 15:52:00,66.0,17.0,-100.00,SSE,164,9.0,17.0,15,0.00,,,0.00,666.000000,,2013-03-02 23:52:00,
2013-03-02 16:32:00,63.0,16.0,-100.00,SSE,158,9.0,15.0,16,0.00,,,0.00,460.000000,,2013-03-03 00:32:00,
2013-03-02 16:42:00,63.0,16.0,-100.00,SSE,158,9.0,15.0,16,0.00,,,0.00,460.000000,,2013-03-03 00:42:00,
2013-03-02 16:52:00,63.0,16.0,-100.00,SSE,158,9.0,15.0,16,0.00,,,0.00,460.000000,,2013-03-03 00:52:00,
2013-03-02 17:01:00,63.0,16.0,-100.00,SSE,158,9.0,15.0,16,0.00,,,0.00,460.000000,,2013-03-03 01:01:00,
2013-03-02 17:32:00,60.0,19.0,-100.00,SSE,165,7.0,12.0,20,0.00,,,0.00,236.000000,,2013-03-03 01:32:00,
2013-03-02 17:42:00,60.0,19.0,-100.00,SSE,165,7.0,12.0,20,0.00,,,0.00,236.000000,,2013-03-03 01:42:00,
2013-03-02 17:52:00,60.0,19.0,-100.00,SSE,165,7.0,12.0,20,0.00,,,0.00,236.000000,,2013-03-03 01:52:00,
2013-03-02 18:01:00,60.0,19.0,-100.00,SSE,165,7.0,12.0,20,0.00,,,0.00,236.000000,,2013-03-03 02:01:00,
2013-03-02 19:32:00,53.0,22.0,-100.00,SSE,153,5.0,12.0,29,-99.99,,,0.00,0.000000,,2013-03-03 03:32:00,
2013-03-02 19:42:00,53.0,22.0,-100.00,SSE,153,5.0,12.0,29,-99.99,,,0.00,0.000000,,2013-03-03 03:42:00,
2013-03-02 19:52:00,53.0,22.0,-100.00,SSE,153,5.0,12.0,29,-99.99,,,0.00,0.000000,,2013-03-03 03:52:00,
2013-03-02 20:01:00,53.0,22.0,-100.00,SSE,153,5.0,12.0,29,-99.99,,,0.00,0.000000,,2013-03-03 04:01:00,
2013-03-02 20:32:00,52.0,22.0,-100.00,SE,134,7.0,11.0,30,0.00,,,0.00,0.000000,,2013-03-03 04:32:00,
2013-03-02 20:42:00,52.0,22.0,-100.00,SE,134,7.0,11.0,30,0.00,,,0.00,0.000000,,2013-03-03 04:42:00,
2013-03-02 20:52:00,52.0,22.0,-100.00,SE,134,7.0,11.0,30,0.00,,,0.00,0.000000,,2013-03-03 04:52:00,
2013-03-02 21:01:00,52.0,22.0,-100.00,SE,134,7.0,11.0,30,0.00,,,0.00,0.000000,,2013-03-03 05:01:00,
2013-03-02 21:32:00,51.0,21.0,-100.00,SE,140,7.0,14.0,30,0.00,,,0.00,0.000000,,2013-03-03 05:32:00,
2013-03-02 21:42:00,51.0,21.0,-100.00,SE,140,7.0,14.0,30,0.00,,,0.00,0.000000,,2013-03-03 05:42:00,
2013-03-02 21:52:00,51.0,21.0,-100.00,SE,140,7.0,14.0,30,0.00,,,0.00,0.000000,,2013-03-03 05:52:00,
2013-03-02 22:01:00,51.0,21.0,-100.00,SE,140,7.0,14.0,30,0.00,,,0.00,0.000000,,2013-03-03 06:01:00,
2013-03-02 22:22:00,48.0,13.0,-100.00,ESE,120,4.0,10.0,24,0.00,,,0.00,0.000000,,2013-03-03 06:22:00,
2013-03-02 22:32:00,48.0,13.0,-100.00,ESE,120,4.0,10.0,24,0.00,,,0.00,0.000000,,2013-03-03 06:32:00,
2013-03-02 22:42:00,48.0,13.0,-100.00,ESE,120,4.0,10.0,24,0.00,,,0.00,0.000000,,2013-03-03 06:42:00,
2013-03-02 22:52:00,48.0,13.0,-100.00,ESE,120,4.0,10.0,24,0.00,,,0.00,0.000000,,2013-03-03 06:52:00,
2013-03-02 23:01:00,48.0,13.0,-100.00,ESE,120,4.0,10.0,24,0.00,,,0.00,0.000000,,2013-03-03 07:01:00,
2013-03-02 23:32:00,52.0,15.0,-100.00,SE,131,10.0,18.0,23,0.00,,,0.00,0.000000,,2013-03-03 07:32:00,
2013-03-02 23:42:00,52.0,15.0,-100.00,SE,131,10.0,18.0,23,0.00,,,0.00,0.000000,,2013-03-03 07:42:00,
2013-03-02 23:52:00,52.0,15.0,-100.00,SE,131,10.0,18.0,23,0.00,,,0.00,0.000000,,2013-03-03 07:52:00,